sensor_id;sensor_type;location;lat;lon;timestamp;P1;durP1;ratioP1;P2;durP2;ratioP2
16612;SDS011;8419;52.358;9.752;2022-12-05T00:01:14;35.53;;;16.47;;
16612;SDS011;8419;52.358;9.752;2022-12-05T00:04:02;32.93;;;17.23;;
16612;SDS011;8419;52.358;9.752;2022-12-05T00:06:49;35.97;;;17.70;;
16612;SDS011;8419;52.358;9.752;2022-12-05T00:09:35;36.07;;;17.33;;
16612;SDS011;8419;52.358;9.752;2022-12-05T00:12:20;34.03;;;16.23;;
16612;SDS011;8419;52.358;9.752;2022-12-05T00:15:07;33.47;;;16.00;;
16612;SDS011;8419;52.358;9.752;2022-12-05T00:17:55;34.37;;;16.90;;
16612;SDS011;8419;52.358;9.752;2022-12-05T00:20:43;33.50;;;16.90;;
16612;SDS011;8419;52.358;9.752;2022-12-05T00:23:29;38.53;;;17.63;;
16612;SDS011;8419;52.358;9.752;2022-12-05T00:26:15;30.23;;;16.33;;
16612;SDS011;8419;52.358;9.752;2022-12-05T00:29:01;38.23;;;16.87;;
16612;SDS011;8419;52.358;9.752;2022-12-05T00:31:47;34.20;;;17.20;;
16612;SDS011;8419;52.358;9.752;2022-12-05T00:34:33;33.60;;;17.43;;
16612;SDS011;8419;52.358;9.752;2022-12-05T00:37:19;33.00;;;16.97;;
16612;SDS011;8419;52.358;9.752;2022-12-05T00:40:06;32.03;;;16.23;;
16612;SDS011;8419;52.358;9.752;2022-12-05T00:42:54;36.70;;;17.47;;
16612;SDS011;8419;52.358;9.752;2022-12-05T00:45:40;35.10;;;17.60;;
16612;SDS011;8419;52.358;9.752;2022-12-05T00:48:26;34.57;;;16.73;;
16612;SDS011;8419;52.358;9.752;2022-12-05T00:51:13;36.13;;;16.47;;
16612;SDS011;8419;52.358;9.752;2022-12-05T00:54:00;31.00;;;15.97;;
16612;SDS011;8419;52.358;9.752;2022-12-05T00:56:48;34.37;;;16.43;;
16612;SDS011;8419;52.358;9.752;2022-12-05T00:59:35;33.27;;;16.13;;
16612;SDS011;8419;52.358;9.752;2022-12-05T01:02:21;31.27;;;16.17;;
16612;SDS011;8419;52.358;9.752;2022-12-05T01:05:07;32.87;;;16.13;;
16612;SDS011;8419;52.358;9.752;2022-12-05T01:07:53;29.77;;;16.47;;
16612;SDS011;8419;52.358;9.752;2022-12-05T01:10:39;35.80;;;16.90;;
16612;SDS011;8419;52.358;9.752;2022-12-05T01:13:25;32.40;;;16.97;;
16612;SDS011;8419;52.358;9.752;2022-12-05T01:16:15;31.67;;;16.30;;
16612;SDS011;8419;52.358;9.752;2022-12-05T01:19:03;31.67;;;16.13;;
16612;SDS011;8419;52.358;9.752;2022-12-05T01:21:54;31.13;;;16.37;;
16612;SDS011;8419;52.358;9.752;2022-12-05T01:24:40;31.30;;;15.50;;
16612;SDS011;8419;52.358;9.752;2022-12-05T01:27:26;28.93;;;16.20;;
16612;SDS011;8419;52.358;9.752;2022-12-05T01:30:12;33.43;;;16.27;;
16612;SDS011;8419;52.358;9.752;2022-12-05T01:32:59;29.90;;;15.27;;
16612;SDS011;8419;52.358;9.752;2022-12-05T01:35:44;27.73;;;14.40;;
16612;SDS011;8419;52.358;9.752;2022-12-05T01:38:30;28.30;;;15.53;;
16612;SDS011;8419;52.358;9.752;2022-12-05T01:41:17;25.50;;;14.57;;
16612;SDS011;8419;52.358;9.752;2022-12-05T01:44:04;29.93;;;15.63;;
16612;SDS011;8419;52.358;9.752;2022-12-05T01:46:53;30.17;;;14.03;;
16612;SDS011;8419;52.358;9.752;2022-12-05T01:49:39;30.17;;;15.17;;
16612;SDS011;8419;52.358;9.752;2022-12-05T01:52:27;28.50;;;15.57;;
16612;SDS011;8419;52.358;9.752;2022-12-05T01:55:15;27.53;;;14.90;;
16612;SDS011;8419;52.358;9.752;2022-12-05T01:58:02;31.37;;;13.53;;
16612;SDS011;8419;52.358;9.752;2022-12-05T02:00:52;25.57;;;13.20;;
16612;SDS011;8419;52.358;9.752;2022-12-05T02:03:37;26.90;;;13.93;;
16612;SDS011;8419;52.358;9.752;2022-12-05T02:06:25;28.23;;;15.53;;
16612;SDS011;8419;52.358;9.752;2022-12-05T02:09:12;23.03;;;13.40;;
16612;SDS011;8419;52.358;9.752;2022-12-05T02:11:58;26.23;;;13.87;;
16612;SDS011;8419;52.358;9.752;2022-12-05T02:14:48;23.10;;;13.87;;
16612;SDS011;8419;52.358;9.752;2022-12-05T02:17:47;25.50;;;13.30;;
16612;SDS011;8419;52.358;9.752;2022-12-05T02:20:43;27.57;;;14.10;;
16612;SDS011;8419;52.358;9.752;2022-12-05T02:27:16;25.40;;;13.07;;
16612;SDS011;8419;52.358;9.752;2022-12-05T02:30:20;23.73;;;13.20;;
16612;SDS011;8419;52.358;9.752;2022-12-05T02:33:11;25.73;;;13.23;;
16612;SDS011;8419;52.358;9.752;2022-12-05T02:36:07;27.30;;;14.47;;
16612;SDS011;8419;52.358;9.752;2022-12-05T02:39:02;24.40;;;12.63;;
16612;SDS011;8419;52.358;9.752;2022-12-05T02:41:58;26.90;;;12.80;;
16612;SDS011;8419;52.358;9.752;2022-12-05T02:44:54;24.07;;;12.70;;
16612;SDS011;8419;52.358;9.752;2022-12-05T02:47:45;26.47;;;13.13;;
16612;SDS011;8419;52.358;9.752;2022-12-05T02:50:35;25.13;;;12.80;;
16612;SDS011;8419;52.358;9.752;2022-12-05T02:53:23;23.73;;;13.10;;
16612;SDS011;8419;52.358;9.752;2022-12-05T02:56:11;23.10;;;13.67;;
16612;SDS011;8419;52.358;9.752;2022-12-05T02:58:58;22.67;;;12.80;;
16612;SDS011;8419;52.358;9.752;2022-12-05T03:01:45;22.43;;;12.70;;
16612;SDS011;8419;52.358;9.752;2022-12-05T03:04:35;24.00;;;12.13;;
16612;SDS011;8419;52.358;9.752;2022-12-05T03:07:21;20.93;;;12.37;;
16612;SDS011;8419;52.358;9.752;2022-12-05T03:10:10;22.83;;;12.60;;
16612;SDS011;8419;52.358;9.752;2022-12-05T03:12:59;26.93;;;13.33;;
16612;SDS011;8419;52.358;9.752;2022-12-05T03:15:49;21.80;;;11.73;;
16612;SDS011;8419;52.358;9.752;2022-12-05T03:18:40;23.67;;;11.90;;
16612;SDS011;8419;52.358;9.752;2022-12-05T03:21:33;26.73;;;13.17;;
16612;SDS011;8419;52.358;9.752;2022-12-05T03:24:20;21.70;;;11.23;;
16612;SDS011;8419;52.358;9.752;2022-12-05T03:27:08;24.53;;;12.07;;
16612;SDS011;8419;52.358;9.752;2022-12-05T03:30:01;21.43;;;11.23;;
16612;SDS011;8419;52.358;9.752;2022-12-05T03:32:50;21.73;;;11.33;;
16612;SDS011;8419;52.358;9.752;2022-12-05T03:35:42;22.40;;;11.90;;
16612;SDS011;8419;52.358;9.752;2022-12-05T03:38:36;19.50;;;11.90;;
16612;SDS011;8419;52.358;9.752;2022-12-05T03:41:30;23.73;;;11.43;;
16612;SDS011;8419;52.358;9.752;2022-12-05T03:44:20;21.37;;;11.63;;
16612;SDS011;8419;52.358;9.752;2022-12-05T03:47:11;18.80;;;10.87;;
16612;SDS011;8419;52.358;9.752;2022-12-05T03:50:04;20.67;;;10.73;;
16612;SDS011;8419;52.358;9.752;2022-12-05T03:52:56;20.10;;;11.53;;
16612;SDS011;8419;52.358;9.752;2022-12-05T03:55:48;19.80;;;10.73;;
16612;SDS011;8419;52.358;9.752;2022-12-05T03:58:38;15.93;;;9.93;;
16612;SDS011;8419;52.358;9.752;2022-12-05T04:01:28;17.97;;;10.73;;
16612;SDS011;8419;52.358;9.752;2022-12-05T04:04:17;18.97;;;10.93;;
16612;SDS011;8419;52.358;9.752;2022-12-05T04:07:09;22.30;;;11.00;;
16612;SDS011;8419;52.358;9.752;2022-12-05T04:09:58;19.80;;;10.80;;
16612;SDS011;8419;52.358;9.752;2022-12-05T04:12:47;17.67;;;10.83;;
16612;SDS011;8419;52.358;9.752;2022-12-05T04:15:36;19.43;;;10.43;;
16612;SDS011;8419;52.358;9.752;2022-12-05T04:18:43;19.27;;;9.93;;
16612;SDS011;8419;52.358;9.752;2022-12-05T04:21:35;16.13;;;9.93;;
16612;SDS011;8419;52.358;9.752;2022-12-05T04:24:25;17.30;;;10.87;;
16612;SDS011;8419;52.358;9.752;2022-12-05T04:27:35;18.70;;;10.63;;
16612;SDS011;8419;52.358;9.752;2022-12-05T04:30:27;19.27;;;10.63;;
16612;SDS011;8419;52.358;9.752;2022-12-05T04:33:21;21.70;;;11.33;;
16612;SDS011;8419;52.358;9.752;2022-12-05T04:36:12;19.93;;;10.70;;
16612;SDS011;8419;52.358;9.752;2022-12-05T04:39:03;17.70;;;10.80;;
16612;SDS011;8419;52.358;9.752;2022-12-05T04:41:53;19.83;;;11.60;;
16612;SDS011;8419;52.358;9.752;2022-12-05T04:44:44;20.57;;;10.50;;
16612;SDS011;8419;52.358;9.752;2022-12-05T04:47:34;20.93;;;11.00;;
16612;SDS011;8419;52.358;9.752;2022-12-05T04:50:25;18.33;;;10.10;;
16612;SDS011;8419;52.358;9.752;2022-12-05T04:53:13;18.33;;;10.87;;
16612;SDS011;8419;52.358;9.752;2022-12-05T04:56:01;17.73;;;10.37;;
16612;SDS011;8419;52.358;9.752;2022-12-05T04:58:49;17.47;;;10.20;;
16612;SDS011;8419;52.358;9.752;2022-12-05T05:01:36;17.03;;;9.90;;
16612;SDS011;8419;52.358;9.752;2022-12-05T05:04:26;18.50;;;10.30;;
16612;SDS011;8419;52.358;9.752;2022-12-05T05:07:15;20.60;;;10.27;;
16612;SDS011;8419;52.358;9.752;2022-12-05T05:10:03;17.90;;;10.07;;
16612;SDS011;8419;52.358;9.752;2022-12-05T05:12:50;17.70;;;10.20;;
16612;SDS011;8419;52.358;9.752;2022-12-05T05:15:36;17.27;;;10.30;;
16612;SDS011;8419;52.358;9.752;2022-12-05T05:18:21;18.60;;;10.13;;
16612;SDS011;8419;52.358;9.752;2022-12-05T05:21:13;17.47;;;11.03;;
16612;SDS011;8419;52.358;9.752;2022-12-05T05:24:03;18.87;;;11.00;;
16612;SDS011;8419;52.358;9.752;2022-12-05T05:26:50;16.50;;;9.20;;
16612;SDS011;8419;52.358;9.752;2022-12-05T05:29:35;17.63;;;8.97;;
16612;SDS011;8419;52.358;9.752;2022-12-05T05:32:22;17.60;;;9.77;;
16612;SDS011;8419;52.358;9.752;2022-12-05T05:35:08;19.53;;;10.13;;
16612;SDS011;8419;52.358;9.752;2022-12-05T05:37:55;17.20;;;9.70;;
16612;SDS011;8419;52.358;9.752;2022-12-05T05:40:41;17.63;;;9.73;;
16612;SDS011;8419;52.358;9.752;2022-12-05T05:43:26;14.43;;;9.57;;
16612;SDS011;8419;52.358;9.752;2022-12-05T05:46:13;13.63;;;8.23;;
16612;SDS011;8419;52.358;9.752;2022-12-05T05:48:59;14.83;;;9.20;;
16612;SDS011;8419;52.358;9.752;2022-12-05T05:51:45;15.23;;;8.80;;
16612;SDS011;8419;52.358;9.752;2022-12-05T05:54:31;15.97;;;8.60;;
16612;SDS011;8419;52.358;9.752;2022-12-05T05:57:16;14.90;;;9.10;;
16612;SDS011;8419;52.358;9.752;2022-12-05T06:00:03;14.67;;;8.43;;
16612;SDS011;8419;52.358;9.752;2022-12-05T06:02:51;16.53;;;10.10;;
16612;SDS011;8419;52.358;9.752;2022-12-05T06:05:36;15.10;;;8.80;;
16612;SDS011;8419;52.358;9.752;2022-12-05T06:08:22;17.30;;;8.53;;
16612;SDS011;8419;52.358;9.752;2022-12-05T06:11:09;15.63;;;9.07;;
16612;SDS011;8419;52.358;9.752;2022-12-05T06:13:58;16.90;;;9.43;;
16612;SDS011;8419;52.358;9.752;2022-12-05T06:16:45;16.47;;;9.33;;
16612;SDS011;8419;52.358;9.752;2022-12-05T06:19:31;16.07;;;9.60;;
16612;SDS011;8419;52.358;9.752;2022-12-05T06:22:18;16.90;;;9.57;;
16612;SDS011;8419;52.358;9.752;2022-12-05T06:25:05;15.50;;;9.03;;
16612;SDS011;8419;52.358;9.752;2022-12-05T06:27:52;15.67;;;9.10;;
16612;SDS011;8419;52.358;9.752;2022-12-05T06:30:37;18.07;;;9.80;;
16612;SDS011;8419;52.358;9.752;2022-12-05T06:33:24;16.20;;;8.97;;
16612;SDS011;8419;52.358;9.752;2022-12-05T06:36:10;14.63;;;9.23;;
16612;SDS011;8419;52.358;9.752;2022-12-05T06:38:58;15.50;;;8.87;;
16612;SDS011;8419;52.358;9.752;2022-12-05T06:41:44;16.07;;;9.40;;
16612;SDS011;8419;52.358;9.752;2022-12-05T06:44:31;14.67;;;8.37;;
16612;SDS011;8419;52.358;9.752;2022-12-05T06:47:16;16.03;;;8.87;;
16612;SDS011;8419;52.358;9.752;2022-12-05T06:50:02;14.33;;;9.70;;
16612;SDS011;8419;52.358;9.752;2022-12-05T06:52:49;14.90;;;9.00;;
16612;SDS011;8419;52.358;9.752;2022-12-05T06:55:35;14.07;;;8.17;;
16612;SDS011;8419;52.358;9.752;2022-12-05T06:58:21;11.17;;;8.63;;
16612;SDS011;8419;52.358;9.752;2022-12-05T07:01:09;16.03;;;8.53;;
16612;SDS011;8419;52.358;9.752;2022-12-05T07:04:16;12.30;;;7.57;;
16612;SDS011;8419;52.358;9.752;2022-12-05T07:07:04;14.33;;;7.93;;
16612;SDS011;8419;52.358;9.752;2022-12-05T07:09:51;12.97;;;7.90;;
16612;SDS011;8419;52.358;9.752;2022-12-05T07:12:37;15.70;;;9.43;;
16612;SDS011;8419;52.358;9.752;2022-12-05T07:15:23;13.73;;;8.27;;
16612;SDS011;8419;52.358;9.752;2022-12-05T07:18:11;12.47;;;7.47;;
16612;SDS011;8419;52.358;9.752;2022-12-05T07:21:00;11.70;;;7.77;;
16612;SDS011;8419;52.358;9.752;2022-12-05T07:23:48;12.37;;;7.90;;
16612;SDS011;8419;52.358;9.752;2022-12-05T07:26:33;13.57;;;8.17;;
16612;SDS011;8419;52.358;9.752;2022-12-05T07:29:19;12.13;;;7.80;;
16612;SDS011;8419;52.358;9.752;2022-12-05T07:32:06;11.63;;;7.80;;
16612;SDS011;8419;52.358;9.752;2022-12-05T07:34:52;12.85;;;8.02;;
16612;SDS011;8419;52.358;9.752;2022-12-05T07:37:38;11.20;;;7.23;;
16612;SDS011;8419;52.358;9.752;2022-12-05T07:40:24;14.43;;;8.00;;
16612;SDS011;8419;52.358;9.752;2022-12-05T07:43:10;11.53;;;7.43;;
16612;SDS011;8419;52.358;9.752;2022-12-05T07:45:56;11.93;;;7.27;;
16612;SDS011;8419;52.358;9.752;2022-12-05T07:48:46;13.10;;;8.80;;
16612;SDS011;8419;52.358;9.752;2022-12-05T07:51:32;12.17;;;7.60;;
16612;SDS011;8419;52.358;9.752;2022-12-05T07:54:19;12.80;;;7.63;;
16612;SDS011;8419;52.358;9.752;2022-12-05T07:57:06;10.83;;;7.17;;
16612;SDS011;8419;52.358;9.752;2022-12-05T07:59:53;13.17;;;8.53;;
16612;SDS011;8419;52.358;9.752;2022-12-05T08:02:38;14.77;;;8.03;;
16612;SDS011;8419;52.358;9.752;2022-12-05T08:05:24;10.30;;;7.43;;
16612;SDS011;8419;52.358;9.752;2022-12-05T08:08:10;11.97;;;7.20;;
16612;SDS011;8419;52.358;9.752;2022-12-05T08:10:56;11.93;;;7.43;;
16612;SDS011;8419;52.358;9.752;2022-12-05T08:13:46;10.57;;;6.77;;
16612;SDS011;8419;52.358;9.752;2022-12-05T08:16:32;12.60;;;7.40;;
16612;SDS011;8419;52.358;9.752;2022-12-05T08:19:18;11.90;;;7.17;;
16612;SDS011;8419;52.358;9.752;2022-12-05T08:22:03;12.47;;;7.87;;
16612;SDS011;8419;52.358;9.752;2022-12-05T08:24:49;14.30;;;6.93;;
16612;SDS011;8419;52.358;9.752;2022-12-05T08:27:35;12.87;;;7.57;;
16612;SDS011;8419;52.358;9.752;2022-12-05T08:30:21;12.65;;;8.15;;
16612;SDS011;8419;52.358;9.752;2022-12-05T08:33:06;11.03;;;7.33;;
16612;SDS011;8419;52.358;9.752;2022-12-05T08:35:52;12.53;;;6.90;;
16612;SDS011;8419;52.358;9.752;2022-12-05T08:38:38;10.30;;;6.67;;
16612;SDS011;8419;52.358;9.752;2022-12-05T08:41:24;13.03;;;7.03;;
16612;SDS011;8419;52.358;9.752;2022-12-05T08:44:13;11.27;;;7.13;;
16612;SDS011;8419;52.358;9.752;2022-12-05T08:47:00;11.10;;;6.93;;
16612;SDS011;8419;52.358;9.752;2022-12-05T08:49:46;13.10;;;6.90;;
16612;SDS011;8419;52.358;9.752;2022-12-05T08:52:32;12.23;;;6.78;;
16612;SDS011;8419;52.358;9.752;2022-12-05T08:55:18;10.70;;;7.20;;
16612;SDS011;8419;52.358;9.752;2022-12-05T08:58:04;9.37;;;6.57;;
16612;SDS011;8419;52.358;9.752;2022-12-05T09:00:50;11.60;;;6.93;;
16612;SDS011;8419;52.358;9.752;2022-12-05T09:03:37;11.43;;;7.23;;
16612;SDS011;8419;52.358;9.752;2022-12-05T09:06:23;11.03;;;6.27;;
16612;SDS011;8419;52.358;9.752;2022-12-05T09:09:10;11.40;;;7.25;;
16612;SDS011;8419;52.358;9.752;2022-12-05T09:11:56;9.80;;;6.63;;
16612;SDS011;8419;52.358;9.752;2022-12-05T09:14:43;12.60;;;7.18;;
16612;SDS011;8419;52.358;9.752;2022-12-05T09:17:29;8.70;;;6.30;;
16612;SDS011;8419;52.358;9.752;2022-12-05T09:20:15;10.33;;;6.67;;
16612;SDS011;8419;52.358;9.752;2022-12-05T09:23:01;9.13;;;6.63;;
16612;SDS011;8419;52.358;9.752;2022-12-05T09:25:52;10.87;;;5.70;;
16612;SDS011;8419;52.358;9.752;2022-12-05T09:28:39;10.70;;;6.70;;
16612;SDS011;8419;52.358;9.752;2022-12-05T09:31:26;10.35;;;6.25;;
16612;SDS011;8419;52.358;9.752;2022-12-05T09:34:13;10.40;;;6.28;;
16612;SDS011;8419;52.358;9.752;2022-12-05T09:37:01;13.23;;;6.63;;
16612;SDS011;8419;52.358;9.752;2022-12-05T09:39:47;11.80;;;6.53;;
16612;SDS011;8419;52.358;9.752;2022-12-05T09:42:38;9.97;;;6.13;;
16612;SDS011;8419;52.358;9.752;2022-12-05T09:45:32;8.15;;;5.90;;
16612;SDS011;8419;52.358;9.752;2022-12-05T09:48:21;9.40;;;6.07;;
16612;SDS011;8419;52.358;9.752;2022-12-05T09:51:07;8.40;;;6.30;;
16612;SDS011;8419;52.358;9.752;2022-12-05T09:53:54;8.40;;;5.65;;
16612;SDS011;8419;52.358;9.752;2022-12-05T09:56:40;7.17;;;5.10;;
16612;SDS011;8419;52.358;9.752;2022-12-05T09:59:28;11.23;;;5.10;;
16612;SDS011;8419;52.358;9.752;2022-12-05T10:02:16;8.27;;;4.90;;
16612;SDS011;8419;52.358;9.752;2022-12-05T10:05:13;7.70;;;6.25;;
16612;SDS011;8419;52.358;9.752;2022-12-05T10:08:07;7.07;;;4.83;;
16612;SDS011;8419;52.358;9.752;2022-12-05T10:11:02;8.30;;;6.00;;
16612;SDS011;8419;52.358;9.752;2022-12-05T10:13:58;7.62;;;5.07;;
16612;SDS011;8419;52.358;9.752;2022-12-05T10:16:53;9.35;;;5.72;;
16612;SDS011;8419;52.358;9.752;2022-12-05T10:19:42;6.18;;;4.62;;
16612;SDS011;8419;52.358;9.752;2022-12-05T10:22:34;8.32;;;5.75;;
16612;SDS011;8419;52.358;9.752;2022-12-05T10:25:26;7.20;;;4.80;;
16612;SDS011;8419;52.358;9.752;2022-12-05T10:28:16;8.07;;;5.05;;
16612;SDS011;8419;52.358;9.752;2022-12-05T10:31:11;10.17;;;5.67;;
16612;SDS011;8419;52.358;9.752;2022-12-05T10:34:02;8.90;;;5.28;;
16612;SDS011;8419;52.358;9.752;2022-12-05T10:37:01;7.72;;;5.87;;
16612;SDS011;8419;52.358;9.752;2022-12-05T10:39:52;7.45;;;5.43;;
16612;SDS011;8419;52.358;9.752;2022-12-05T10:42:39;9.00;;;5.22;;
16612;SDS011;8419;52.358;9.752;2022-12-05T10:45:25;7.20;;;5.05;;
16612;SDS011;8419;52.358;9.752;2022-12-05T10:48:11;8.55;;;5.45;;
16612;SDS011;8419;52.358;9.752;2022-12-05T10:50:59;7.85;;;4.47;;
16612;SDS011;8419;52.358;9.752;2022-12-05T10:53:45;9.75;;;6.53;;
16612;SDS011;8419;52.358;9.752;2022-12-05T10:56:41;9.57;;;5.82;;
16612;SDS011;8419;52.358;9.752;2022-12-05T10:59:43;5.82;;;4.72;;
16612;SDS011;8419;52.358;9.752;2022-12-05T11:02:31;7.15;;;4.37;;
16612;SDS011;8419;52.358;9.752;2022-12-05T11:05:28;6.32;;;4.60;;
16612;SDS011;8419;52.358;9.752;2022-12-05T11:08:20;7.60;;;4.67;;
16612;SDS011;8419;52.358;9.752;2022-12-05T11:11:16;4.65;;;3.92;;
16612;SDS011;8419;52.358;9.752;2022-12-05T11:14:05;7.07;;;4.07;;
16612;SDS011;8419;52.358;9.752;2022-12-05T11:17:05;8.20;;;4.43;;
16612;SDS011;8419;52.358;9.752;2022-12-05T11:20:32;10.60;;;5.57;;
16612;SDS011;8419;52.358;9.752;2022-12-05T11:23:25;10.52;;;4.70;;
16612;SDS011;8419;52.358;9.752;2022-12-05T11:26:31;7.70;;;4.67;;
16612;SDS011;8419;52.358;9.752;2022-12-05T11:29:27;6.62;;;4.53;;
16612;SDS011;8419;52.358;9.752;2022-12-05T11:32:19;8.53;;;5.00;;
16612;SDS011;8419;52.358;9.752;2022-12-05T11:35:15;7.10;;;4.83;;
16612;SDS011;8419;52.358;9.752;2022-12-05T11:38:08;7.40;;;4.47;;
16612;SDS011;8419;52.358;9.752;2022-12-05T11:40:57;9.35;;;5.10;;
16612;SDS011;8419;52.358;9.752;2022-12-05T11:44:03;9.20;;;5.35;;
16612;SDS011;8419;52.358;9.752;2022-12-05T11:46:58;7.40;;;4.53;;
16612;SDS011;8419;52.358;9.752;2022-12-05T11:50:01;8.32;;;5.10;;
16612;SDS011;8419;52.358;9.752;2022-12-05T11:53:03;5.80;;;4.17;;
16612;SDS011;8419;52.358;9.752;2022-12-05T11:56:01;7.00;;;4.30;;
16612;SDS011;8419;52.358;9.752;2022-12-05T11:59:01;6.87;;;4.23;;
16612;SDS011;8419;52.358;9.752;2022-12-05T12:02:03;6.70;;;4.20;;
16612;SDS011;8419;52.358;9.752;2022-12-05T12:05:00;8.90;;;4.37;;
16612;SDS011;8419;52.358;9.752;2022-12-05T12:07:58;8.88;;;4.70;;
16612;SDS011;8419;52.358;9.752;2022-12-05T12:10:53;12.63;;;8.70;;
16612;SDS011;8419;52.358;9.752;2022-12-05T12:13:50;7.57;;;4.57;;
16612;SDS011;8419;52.358;9.752;2022-12-05T12:16:46;6.87;;;4.57;;
16612;SDS011;8419;52.358;9.752;2022-12-05T12:23:03;7.18;;;5.00;;
16612;SDS011;8419;52.358;9.752;2022-12-05T12:26:04;9.63;;;5.13;;
16612;SDS011;8419;52.358;9.752;2022-12-05T12:28:55;7.43;;;4.83;;
16612;SDS011;8419;52.358;9.752;2022-12-05T12:31:54;6.97;;;4.20;;
16612;SDS011;8419;52.358;9.752;2022-12-05T12:38:29;7.63;;;4.67;;
16612;SDS011;8419;52.358;9.752;2022-12-05T12:45:01;7.50;;;3.77;;
16612;SDS011;8419;52.358;9.752;2022-12-05T12:48:11;9.82;;;5.50;;
16612;SDS011;8419;52.358;9.752;2022-12-05T12:51:24;6.93;;;5.18;;
16612;SDS011;8419;52.358;9.752;2022-12-05T12:54:18;13.17;;;5.47;;
16612;SDS011;8419;52.358;9.752;2022-12-05T12:57:41;8.05;;;4.68;;
16612;SDS011;8419;52.358;9.752;2022-12-05T13:00:43;6.10;;;4.60;;
16612;SDS011;8419;52.358;9.752;2022-12-05T13:03:40;6.55;;;4.80;;
16612;SDS011;8419;52.358;9.752;2022-12-05T13:06:32;7.05;;;5.20;;
16612;SDS011;8419;52.358;9.752;2022-12-05T13:09:25;9.23;;;5.07;;
16612;SDS011;8419;52.358;9.752;2022-12-05T13:12:21;7.20;;;4.90;;
16612;SDS011;8419;52.358;9.752;2022-12-05T13:15:15;8.18;;;5.22;;
16612;SDS011;8419;52.358;9.752;2022-12-05T13:18:06;8.43;;;5.30;;
16612;SDS011;8419;52.358;9.752;2022-12-05T13:20:58;7.25;;;5.50;;
16612;SDS011;8419;52.358;9.752;2022-12-05T13:23:47;8.98;;;5.72;;
16612;SDS011;8419;52.358;9.752;2022-12-05T13:26:35;7.68;;;5.10;;
16612;SDS011;8419;52.358;9.752;2022-12-05T13:29:32;6.47;;;5.10;;
16612;SDS011;8419;52.358;9.752;2022-12-05T13:32:26;6.55;;;5.07;;
16612;SDS011;8419;52.358;9.752;2022-12-05T13:35:19;7.22;;;4.87;;
16612;SDS011;8419;52.358;9.752;2022-12-05T13:38:32;9.68;;;5.12;;
16612;SDS011;8419;52.358;9.752;2022-12-05T13:41:41;6.32;;;5.00;;
16612;SDS011;8419;52.358;9.752;2022-12-05T13:44:47;9.00;;;5.70;;
16612;SDS011;8419;52.358;9.752;2022-12-05T13:47:38;9.07;;;5.18;;
16612;SDS011;8419;52.358;9.752;2022-12-05T13:50:39;6.77;;;5.47;;
16612;SDS011;8419;52.358;9.752;2022-12-05T13:53:31;8.20;;;5.53;;
16612;SDS011;8419;52.358;9.752;2022-12-05T13:56:23;7.80;;;5.47;;
16612;SDS011;8419;52.358;9.752;2022-12-05T13:59:11;9.10;;;6.00;;
16612;SDS011;8419;52.358;9.752;2022-12-05T14:02:45;6.83;;;5.30;;
16612;SDS011;8419;52.358;9.752;2022-12-05T14:05:39;7.32;;;5.68;;
16612;SDS011;8419;52.358;9.752;2022-12-05T14:08:51;11.87;;;6.60;;
16612;SDS011;8419;52.358;9.752;2022-12-05T14:11:38;7.80;;;5.60;;
16612;SDS011;8419;52.358;9.752;2022-12-05T14:14:42;6.90;;;5.12;;
16612;SDS011;8419;52.358;9.752;2022-12-05T14:17:44;8.60;;;5.80;;
16612;SDS011;8419;52.358;9.752;2022-12-05T14:20:37;8.02;;;5.35;;
16612;SDS011;8419;52.358;9.752;2022-12-05T14:23:48;6.40;;;5.20;;
16612;SDS011;8419;52.358;9.752;2022-12-05T14:26:49;7.10;;;4.70;;
16612;SDS011;8419;52.358;9.752;2022-12-05T14:29:54;6.10;;;4.57;;
16612;SDS011;8419;52.358;9.752;2022-12-05T14:32:46;8.18;;;5.82;;
16612;SDS011;8419;52.358;9.752;2022-12-05T14:35:40;6.78;;;5.22;;
16612;SDS011;8419;52.358;9.752;2022-12-05T14:38:30;7.50;;;5.32;;
16612;SDS011;8419;52.358;9.752;2022-12-05T14:41:23;10.75;;;5.60;;
16612;SDS011;8419;52.358;9.752;2022-12-05T14:44:17;6.43;;;5.07;;
16612;SDS011;8419;52.358;9.752;2022-12-05T14:47:07;10.68;;;6.15;;
16612;SDS011;8419;52.358;9.752;2022-12-05T14:50:22;9.97;;;5.13;;
16612;SDS011;8419;52.358;9.752;2022-12-05T14:53:39;7.68;;;5.50;;
16612;SDS011;8419;52.358;9.752;2022-12-05T14:56:27;8.83;;;6.90;;
16612;SDS011;8419;52.358;9.752;2022-12-05T14:59:19;7.07;;;5.37;;
16612;SDS011;8419;52.358;9.752;2022-12-05T15:02:13;6.93;;;5.50;;
16612;SDS011;8419;52.358;9.752;2022-12-05T15:05:16;7.13;;;5.57;;
16612;SDS011;8419;52.358;9.752;2022-12-05T15:08:08;7.40;;;5.70;;
16612;SDS011;8419;52.358;9.752;2022-12-05T15:11:06;7.18;;;5.70;;
16612;SDS011;8419;52.358;9.752;2022-12-05T15:14:13;7.00;;;5.10;;
16612;SDS011;8419;52.358;9.752;2022-12-05T15:17:04;6.85;;;5.25;;
16612;SDS011;8419;52.358;9.752;2022-12-05T15:20:00;8.77;;;5.07;;
16612;SDS011;8419;52.358;9.752;2022-12-05T15:22:50;5.87;;;4.72;;
16612;SDS011;8419;52.358;9.752;2022-12-05T15:25:38;7.63;;;4.70;;
16612;SDS011;8419;52.358;9.752;2022-12-05T15:28:26;5.53;;;4.90;;
16612;SDS011;8419;52.358;9.752;2022-12-05T15:31:11;7.33;;;4.80;;
16612;SDS011;8419;52.358;9.752;2022-12-05T15:33:59;6.10;;;4.17;;
16612;SDS011;8419;52.358;9.752;2022-12-05T15:36:49;7.87;;;4.60;;
16612;SDS011;8419;52.358;9.752;2022-12-05T15:39:53;7.47;;;4.93;;
16612;SDS011;8419;52.358;9.752;2022-12-05T15:42:41;5.60;;;4.50;;
16612;SDS011;8419;52.358;9.752;2022-12-05T15:45:29;6.87;;;4.67;;
16612;SDS011;8419;52.358;9.752;2022-12-05T15:48:15;7.13;;;4.87;;
16612;SDS011;8419;52.358;9.752;2022-12-05T15:51:00;6.80;;;4.60;;
16612;SDS011;8419;52.358;9.752;2022-12-05T15:53:47;8.60;;;4.77;;
16612;SDS011;8419;52.358;9.752;2022-12-05T15:56:36;6.33;;;4.70;;
16612;SDS011;8419;52.358;9.752;2022-12-05T15:59:27;7.25;;;5.32;;
16612;SDS011;8419;52.358;9.752;2022-12-05T16:02:21;7.93;;;5.68;;
16612;SDS011;8419;52.358;9.752;2022-12-05T16:05:29;6.68;;;5.05;;
16612;SDS011;8419;52.358;9.752;2022-12-05T16:08:18;7.17;;;5.00;;
16612;SDS011;8419;52.358;9.752;2022-12-05T16:11:06;6.30;;;4.43;;
16612;SDS011;8419;52.358;9.752;2022-12-05T16:13:54;7.33;;;5.27;;
16612;SDS011;8419;52.358;9.752;2022-12-05T16:16:42;6.23;;;4.37;;
16612;SDS011;8419;52.358;9.752;2022-12-05T16:19:29;8.87;;;5.40;;
16612;SDS011;8419;52.358;9.752;2022-12-05T16:22:22;8.67;;;5.70;;
16612;SDS011;8419;52.358;9.752;2022-12-05T16:25:12;8.10;;;5.70;;
16612;SDS011;8419;52.358;9.752;2022-12-05T16:28:14;7.83;;;5.37;;
16612;SDS011;8419;52.358;9.752;2022-12-05T16:31:01;10.67;;;7.90;;
16612;SDS011;8419;52.358;9.752;2022-12-05T16:33:57;10.57;;;7.10;;
16612;SDS011;8419;52.358;9.752;2022-12-05T16:36:45;8.97;;;6.00;;
16612;SDS011;8419;52.358;9.752;2022-12-05T16:39:31;7.62;;;6.07;;
16612;SDS011;8419;52.358;9.752;2022-12-05T16:42:20;9.37;;;5.90;;
16612;SDS011;8419;52.358;9.752;2022-12-05T16:45:35;6.53;;;5.03;;
16612;SDS011;8419;52.358;9.752;2022-12-05T16:48:23;8.50;;;5.50;;
16612;SDS011;8419;52.358;9.752;2022-12-05T16:51:14;7.53;;;5.50;;
16612;SDS011;8419;52.358;9.752;2022-12-05T16:54:02;8.52;;;5.12;;
16612;SDS011;8419;52.358;9.752;2022-12-05T16:56:47;7.30;;;5.32;;
16612;SDS011;8419;52.358;9.752;2022-12-05T16:59:34;10.47;;;5.77;;
16612;SDS011;8419;52.358;9.752;2022-12-05T17:02:25;7.90;;;5.50;;
16612;SDS011;8419;52.358;9.752;2022-12-05T17:05:12;7.17;;;5.40;;
16612;SDS011;8419;52.358;9.752;2022-12-05T17:07:58;7.67;;;5.40;;
16612;SDS011;8419;52.358;9.752;2022-12-05T17:10:44;6.97;;;6.20;;
16612;SDS011;8419;52.358;9.752;2022-12-05T17:13:29;7.07;;;5.57;;
16612;SDS011;8419;52.358;9.752;2022-12-05T17:16:16;6.55;;;4.75;;
16612;SDS011;8419;52.358;9.752;2022-12-05T17:19:03;7.23;;;5.10;;
16612;SDS011;8419;52.358;9.752;2022-12-05T17:21:49;6.10;;;4.80;;
16612;SDS011;8419;52.358;9.752;2022-12-05T17:24:34;8.73;;;5.63;;